createdAt,value
2023-05-18T00:01:22.524Z,13.38
2023-05-18T00:03:49.302Z,13.38
2023-05-18T00:06:16.413Z,13.28
2023-05-18T00:08:43.150Z,13.20
2023-05-18T00:11:09.940Z,13.15
2023-05-18T00:13:36.638Z,13.01
2023-05-18T00:16:03.426Z,13.21
2023-05-18T00:18:30.125Z,13.17
2023-05-18T00:20:59.410Z,13.24
2023-05-18T00:23:33.315Z,13.11
2023-05-18T00:26:01.475Z,13.38
2023-05-18T00:28:29.087Z,13.38
2023-05-18T00:30:56.229Z,13.36
2023-05-18T00:33:23.352Z,13.27
2023-05-18T00:35:51.034Z,13.33
2023-05-18T00:38:18.061Z,13.42
2023-05-18T00:40:44.846Z,13.39
2023-05-18T00:43:11.722Z,13.39
2023-05-18T00:45:38.696Z,13.45
2023-05-18T00:48:06.077Z,13.51
2023-05-18T00:50:33.124Z,13.37
2023-05-18T00:53:00.595Z,13.47
2023-05-18T00:55:28.632Z,13.36
2023-05-18T00:57:57.184Z,13.25
2023-05-18T01:00:24.409Z,13.36
2023-05-18T01:02:51.772Z,13.65
2023-05-18T01:05:20.208Z,13.53
2023-05-18T01:07:48.137Z,13.49
2023-05-18T01:10:17.430Z,13.53
2023-05-18T01:12:50.016Z,13.64
2023-05-18T01:15:26.022Z,13.86
2023-05-18T01:18:05.289Z,13.72
2023-05-18T01:20:46.113Z,13.39
2023-05-18T01:23:45.042Z,13.46
2023-05-18T01:26:37.525Z,13.55
2023-05-18T01:29:09.237Z,13.54
2023-05-18T01:31:36.260Z,13.57
2023-05-18T01:34:03.140Z,13.48
2023-05-18T01:36:29.831Z,13.53
2023-05-18T01:39:01.568Z,13.56
2023-05-18T01:41:29.837Z,13.41
2023-05-18T01:44:09.426Z,13.53
2023-05-18T01:46:59.437Z,13.32
2023-05-18T01:49:47.934Z,13.55
2023-05-18T01:52:32.215Z,13.66
2023-05-18T01:55:03.595Z,13.71
2023-05-18T01:57:32.335Z,13.72
2023-05-18T02:00:00.315Z,13.74
2023-05-18T02:02:29.483Z,13.72
2023-05-18T02:04:56.385Z,13.70
2023-05-18T02:07:23.097Z,13.70
2023-05-18T02:09:49.955Z,13.58
2023-05-18T02:12:16.776Z,13.88
2023-05-18T02:14:43.494Z,13.86
2023-05-18T02:17:11.715Z,13.75
2023-05-18T02:19:38.867Z,13.85
2023-05-18T02:22:07.153Z,13.69
2023-05-18T02:24:34.414Z,13.75
2023-05-18T02:27:01.651Z,13.71
2023-05-18T02:29:28.465Z,13.63
2023-05-18T02:31:55.283Z,13.46
2023-05-18T02:34:22.939Z,13.44
2023-05-18T02:36:49.616Z,13.46
2023-05-18T02:39:16.716Z,13.45
2023-05-18T02:41:43.424Z,13.61
2023-05-18T02:44:12.443Z,13.58
2023-05-18T02:46:39.299Z,13.57
2023-05-18T02:49:06.041Z,13.47
2023-05-18T02:51:33.001Z,13.71
2023-05-18T02:53:59.825Z,13.56
2023-05-18T02:56:26.563Z,13.54
2023-05-18T02:58:58.041Z,13.47
2023-05-18T03:01:27.192Z,13.57
2023-05-18T03:03:54.611Z,13.45
2023-05-18T03:06:26.809Z,13.44
2023-05-18T03:08:56.780Z,13.71
2023-05-18T03:11:24.390Z,13.68
2023-05-18T03:13:51.148Z,13.84
2023-05-18T03:16:18.814Z,13.83
2023-05-18T03:18:46.237Z,13.89
2023-05-18T03:21:13.848Z,13.85
2023-05-18T03:23:40.894Z,13.86
2023-05-18T03:26:11.785Z,13.76
2023-05-18T03:28:39.242Z,13.93
2023-05-18T03:31:06.163Z,13.80
2023-05-18T03:33:33.241Z,13.73
2023-05-18T03:36:04.749Z,13.73
2023-05-18T03:38:31.561Z,13.78
2023-05-18T03:40:58.394Z,13.76
2023-05-18T03:43:29.661Z,13.45
2023-05-18T03:45:56.664Z,13.42
2023-05-18T03:48:24.275Z,13.46
2023-05-18T03:50:51.074Z,13.39
2023-05-18T03:53:21.600Z,13.54
2023-05-18T03:55:52.487Z,13.33
2023-05-18T03:58:22.596Z,13.32
2023-05-18T04:00:51.116Z,13.29
2023-05-18T04:03:18.007Z,13.29
2023-05-18T04:05:45.000Z,13.15
2023-05-18T04:08:15.008Z,13.12
2023-05-18T04:10:45.041Z,13.17
2023-05-18T04:13:12.319Z,13.24
2023-05-18T04:15:39.108Z,13.38
2023-05-18T04:18:05.939Z,13.39
2023-05-18T04:20:32.877Z,13.40
2023-05-18T04:23:00.195Z,13.27
2023-05-18T04:25:28.420Z,13.08
2023-05-18T04:27:56.464Z,12.95
2023-05-18T04:30:24.132Z,13.15
2023-05-18T04:32:51.420Z,13.15
2023-05-18T04:35:18.754Z,13.18
2023-05-18T04:37:45.510Z,13.26
2023-05-18T04:40:17.243Z,13.25
2023-05-18T04:42:48.623Z,13.35
2023-05-18T04:45:20.548Z,13.27
2023-05-18T04:47:53.608Z,13.36
2023-05-18T04:50:23.883Z,13.29
2023-05-18T04:52:51.643Z,13.21
2023-05-18T04:55:23.287Z,13.35
2023-05-18T04:57:51.055Z,13.13
2023-05-18T05:00:18.477Z,13.29
2023-05-18T05:02:45.427Z,13.34
2023-05-18T05:05:12.480Z,13.36
2023-05-18T05:07:39.205Z,13.41
2023-05-18T05:10:06.641Z,13.47
2023-05-18T05:12:33.625Z,13.51
2023-05-18T05:15:00.326Z,13.51
2023-05-18T05:17:27.121Z,13.73
2023-05-18T05:19:53.896Z,13.68
2023-05-18T05:22:20.740Z,14.03
2023-05-18T05:24:47.586Z,14.00
2023-05-18T05:27:14.330Z,14.13
2023-05-18T05:29:41.144Z,14.15
2023-05-18T05:32:08.024Z,14.30
2023-05-18T05:34:34.782Z,14.20
2023-05-18T05:37:01.533Z,14.08
2023-05-18T05:39:28.224Z,14.05
2023-05-18T05:41:55.117Z,14.04
2023-05-18T05:44:21.778Z,14.07
2023-05-18T05:46:48.695Z,13.99
2023-05-18T05:49:15.566Z,14.05
2023-05-18T05:51:42.235Z,14.17
2023-05-18T05:54:10.675Z,14.16
2023-05-18T05:56:37.684Z,14.21
2023-05-18T05:59:04.404Z,14.30
2023-05-18T06:01:31.061Z,14.18
2023-05-18T06:03:57.776Z,13.97
2023-05-18T06:06:24.445Z,14.17
2023-05-18T06:08:51.125Z,14.33
2023-05-18T06:11:18.233Z,14.41
2023-05-18T06:13:45.281Z,14.55
2023-05-18T06:16:12.052Z,14.60
2023-05-18T06:18:39.673Z,14.45
2023-05-18T06:21:06.543Z,14.49
2023-05-18T06:23:33.263Z,14.50
2023-05-18T06:25:59.982Z,14.51
2023-05-18T06:28:26.650Z,14.43
2023-05-18T06:30:53.381Z,14.58
2023-05-18T06:33:21.730Z,14.50
2023-05-18T06:35:48.570Z,14.46
2023-05-18T06:38:15.311Z,14.73
2023-05-18T06:40:42.122Z,14.68
2023-05-18T06:43:08.852Z,14.68
2023-05-18T06:45:37.321Z,14.51
2023-05-18T06:48:04.737Z,14.64
2023-05-18T06:50:31.714Z,14.59
2023-05-18T06:52:58.406Z,14.86
2023-05-18T06:55:25.146Z,14.86
2023-05-18T06:57:53.066Z,15.11
2023-05-18T07:00:20.866Z,14.89
2023-05-18T07:02:47.669Z,14.80
2023-05-18T07:05:15.077Z,15.04
2023-05-18T07:07:41.915Z,15.02
2023-05-18T07:10:08.981Z,15.14
2023-05-18T07:12:35.682Z,15.26
2023-05-18T07:15:04.242Z,15.21
2023-05-18T07:17:31.490Z,15.26
2023-05-18T07:19:58.220Z,15.24
2023-05-18T07:22:24.984Z,15.48
2023-05-18T07:24:51.785Z,15.90
2023-05-18T07:27:24.968Z,16.05
2023-05-18T07:29:53.500Z,15.50
2023-05-18T07:32:20.798Z,15.68
2023-05-18T07:34:48.033Z,16.04
2023-05-18T07:37:14.785Z,15.96
2023-05-18T07:39:41.899Z,16.13
2023-05-18T07:42:09.042Z,16.26
2023-05-18T07:44:35.903Z,16.42
2023-05-18T07:47:02.930Z,16.45
2023-05-18T07:49:29.729Z,16.57
2023-05-18T07:51:57.229Z,16.75
2023-05-18T07:54:23.946Z,16.62
2023-05-18T07:56:50.688Z,16.63
2023-05-18T07:59:17.534Z,16.28
2023-05-18T08:01:45.841Z,16.46
2023-05-18T08:04:12.689Z,16.39
2023-05-18T08:06:39.542Z,16.60
2023-05-18T08:09:07.128Z,16.59
2023-05-18T08:11:34.077Z,16.62
2023-05-18T08:14:00.991Z,16.61
2023-05-18T08:16:27.792Z,16.39
2023-05-18T08:18:54.595Z,16.61
2023-05-18T08:21:21.454Z,16.80
2023-05-18T08:23:48.298Z,16.71
2023-05-18T08:26:14.966Z,16.87
2023-05-18T08:28:42.069Z,17.01
2023-05-18T08:31:08.804Z,16.97
2023-05-18T08:33:35.580Z,17.14
2023-05-18T08:36:02.429Z,17.26
2023-05-18T08:38:29.197Z,17.37
2023-05-18T08:41:26.702Z,17.58
2023-05-18T08:44:11.929Z,17.50
2023-05-18T08:46:42.902Z,17.54
2023-05-18T08:49:11.037Z,17.98
2023-05-18T08:51:38.175Z,17.93
2023-05-18T08:54:08.516Z,18.16
2023-05-18T08:56:36.781Z,18.17
2023-05-18T08:59:08.539Z,18.11
2023-05-18T09:01:36.045Z,17.64
2023-05-18T09:04:04.377Z,17.89
2023-05-18T09:06:34.352Z,18.08
2023-05-18T09:09:05.494Z,18.01
2023-05-18T09:11:36.026Z,18.00
2023-05-18T09:14:03.299Z,18.29
2023-05-18T09:16:30.640Z,18.04
2023-05-18T09:18:57.492Z,18.13
2023-05-18T09:21:24.220Z,18.27
2023-05-18T09:23:52.171Z,18.09
2023-05-18T09:26:22.719Z,17.76
2023-05-18T09:28:53.574Z,18.15
2023-05-18T09:31:24.529Z,17.88
2023-05-18T09:33:52.665Z,17.86
2023-05-18T09:36:25.174Z,17.59
2023-05-18T09:38:52.407Z,17.76
2023-05-18T09:41:19.459Z,18.03
2023-05-18T09:43:49.599Z,18.16
2023-05-18T09:46:16.619Z,18.21
2023-05-18T09:48:46.641Z,18.45
2023-05-18T09:51:17.662Z,18.15
2023-05-18T09:53:58.044Z,18.23
2023-05-18T09:56:27.080Z,18.71
2023-05-18T09:58:54.423Z,18.14
2023-05-18T10:01:21.161Z,18.11
2023-05-18T10:03:50.032Z,18.14
2023-05-18T10:06:21.279Z,18.31
2023-05-18T10:08:48.670Z,18.37
2023-05-18T10:11:19.912Z,18.60
2023-05-18T10:13:47.233Z,18.27
2023-05-18T10:16:15.618Z,17.96
2023-05-18T10:18:43.065Z,18.24
2023-05-18T10:21:12.680Z,18.43
2023-05-18T10:23:40.872Z,18.46
2023-05-18T10:26:10.054Z,18.33
2023-05-18T10:28:40.168Z,18.68
2023-05-18T10:31:08.446Z,18.54
2023-05-18T10:33:37.260Z,18.25
2023-05-18T10:36:05.473Z,18.30
2023-05-18T10:38:33.795Z,18.68
2023-05-18T10:41:01.769Z,18.79
2023-05-18T10:43:28.945Z,18.77
2023-05-18T10:46:00.290Z,18.84
2023-05-18T10:48:29.232Z,18.48
2023-05-18T10:50:57.949Z,18.85
2023-05-18T10:53:27.656Z,18.71
2023-05-18T10:55:54.627Z,19.09
2023-05-18T10:58:27.782Z,18.66
2023-05-18T11:01:00.201Z,18.86
2023-05-18T11:03:28.696Z,18.67
2023-05-18T11:06:10.970Z,18.96
2023-05-18T11:08:50.739Z,19.10
2023-05-18T11:11:19.440Z,19.07
2023-05-18T11:13:51.651Z,18.65
2023-05-18T11:16:20.075Z,18.89
2023-05-18T11:18:52.473Z,19.21
2023-05-18T11:21:36.060Z,18.64
2023-05-18T11:24:22.579Z,19.20
2023-05-18T11:26:53.684Z,19.23
2023-05-18T11:29:23.379Z,19.30
2023-05-18T11:31:54.890Z,19.08
2023-05-18T11:34:46.705Z,18.89
2023-05-18T11:37:50.703Z,19.21
2023-05-18T11:40:49.181Z,19.13
2023-05-18T11:43:23.815Z,19.29
2023-05-18T11:45:59.597Z,19.15
2023-05-18T11:48:30.228Z,19.43
2023-05-18T11:50:58.196Z,19.04
2023-05-18T11:53:27.030Z,19.18
2023-05-18T11:55:55.140Z,19.34
2023-05-18T11:58:24.855Z,19.23
2023-05-18T12:00:52.855Z,19.45
2023-05-18T12:03:25.970Z,19.50
2023-05-18T12:05:53.458Z,19.20
2023-05-18T12:08:21.856Z,19.06
2023-05-18T12:10:52.305Z,18.70
2023-05-18T12:13:19.601Z,19.09
2023-05-18T12:15:46.806Z,19.25
2023-05-18T12:18:14.438Z,19.37
2023-05-18T12:20:41.496Z,19.62
2023-05-18T12:23:08.258Z,19.45
2023-05-18T12:25:36.620Z,19.77
2023-05-18T12:28:04.980Z,19.54
2023-05-18T12:30:35.801Z,19.82
2023-05-18T12:33:04.493Z,19.51
2023-05-18T12:35:32.394Z,19.28
2023-05-18T12:38:00.842Z,18.83
2023-05-18T12:40:34.393Z,19.14
2023-05-18T12:43:03.149Z,19.37
2023-05-18T12:45:33.578Z,19.11
2023-05-18T12:48:12.146Z,19.11
2023-05-18T12:50:50.661Z,19.10
2023-05-18T12:53:18.128Z,19.16
2023-05-18T12:55:45.395Z,18.78
2023-05-18T12:58:19.416Z,18.58
2023-05-18T13:00:48.507Z,18.54
2023-05-18T13:03:18.162Z,18.44
2023-05-18T13:05:46.722Z,18.46
2023-05-18T13:08:22.313Z,18.46
2023-05-18T13:10:58.367Z,18.16
2023-05-18T13:13:28.648Z,18.30
2023-05-18T13:15:55.521Z,18.43
2023-05-18T13:18:22.225Z,18.43
2023-05-18T13:20:54.413Z,18.34
2023-05-18T13:23:24.108Z,18.15
2023-05-18T13:25:51.243Z,18.26
2023-05-18T13:28:20.728Z,18.52
2023-05-18T13:30:49.300Z,18.75
2023-05-18T13:33:18.175Z,18.43
2023-05-18T13:35:46.429Z,18.68
2023-05-18T13:38:14.260Z,18.79
2023-05-18T13:40:43.070Z,18.65
2023-05-18T13:43:11.967Z,18.78
2023-05-18T13:45:41.284Z,18.71
2023-05-18T13:48:10.726Z,18.80
2023-05-18T13:50:38.204Z,18.84
2023-05-18T13:53:07.764Z,18.59
2023-05-18T13:55:34.897Z,18.69
2023-05-18T13:58:02.067Z,18.63
2023-05-18T14:00:28.885Z,18.28
2023-05-18T14:02:56.819Z,18.37
2023-05-18T14:05:23.963Z,18.62
2023-05-18T14:07:52.764Z,18.77
2023-05-18T14:10:19.848Z,18.62
2023-05-18T14:12:47.117Z,18.76
2023-05-18T14:15:14.263Z,18.36
2023-05-18T14:17:41.965Z,18.55
2023-05-18T14:20:09.472Z,18.68
2023-05-18T14:22:36.438Z,18.49
2023-05-18T14:25:03.410Z,18.21
2023-05-18T14:27:30.166Z,17.99
2023-05-18T14:29:56.982Z,17.86
2023-05-18T14:32:23.858Z,17.91
2023-05-18T14:34:52.129Z,17.64
2023-05-18T14:37:19.386Z,17.80
2023-05-18T14:39:46.243Z,17.71
2023-05-18T14:42:12.997Z,17.32
2023-05-18T14:44:39.713Z,17.64
2023-05-18T14:47:06.796Z,17.73
2023-05-18T14:49:33.796Z,17.64
2023-05-18T14:52:00.601Z,17.81
2023-05-18T14:54:27.297Z,17.73
2023-05-18T14:56:54.070Z,17.56
2023-05-18T14:59:21.664Z,17.33
2023-05-18T15:01:48.823Z,17.54
2023-05-18T15:04:15.582Z,17.27
2023-05-18T15:06:42.376Z,17.26
2023-05-18T15:09:12.006Z,17.69
2023-05-18T15:11:38.923Z,17.62
2023-05-18T15:14:05.601Z,17.57
2023-05-18T15:16:32.850Z,17.80
2023-05-18T15:18:59.678Z,18.01
2023-05-18T15:21:26.642Z,17.77
2023-05-18T15:23:53.894Z,17.92
2023-05-18T15:26:21.422Z,17.75
2023-05-18T15:28:49.417Z,17.78
2023-05-18T15:31:16.466Z,17.68
2023-05-18T15:33:43.854Z,17.85
2023-05-18T15:36:10.955Z,18.15
2023-05-18T15:38:37.859Z,18.18
2023-05-18T15:41:05.609Z,18.33
2023-05-18T15:43:34.348Z,18.64
2023-05-18T15:46:01.718Z,18.60
2023-05-18T15:48:29.906Z,18.69
2023-05-18T15:50:58.500Z,18.81
2023-05-18T15:53:29.325Z,18.68
2023-05-18T15:56:00.769Z,18.81
2023-05-18T15:58:28.797Z,18.47
2023-05-18T16:00:57.457Z,18.93
2023-05-18T16:03:24.465Z,18.97
2023-05-18T16:05:51.937Z,19.13
2023-05-18T16:08:21.832Z,19.06
2023-05-18T16:10:49.057Z,19.16
2023-05-18T16:13:16.289Z,19.23
2023-05-18T16:15:43.746Z,19.11
2023-05-18T16:18:11.266Z,18.76
2023-05-18T16:20:41.943Z,18.85
2023-05-18T16:23:09.803Z,18.85
2023-05-18T16:25:37.371Z,19.00
2023-05-18T16:28:04.864Z,18.78
2023-05-18T16:30:34.263Z,18.82
2023-05-18T16:33:05.268Z,18.98
2023-05-18T16:35:32.301Z,19.02
2023-05-18T16:37:59.280Z,18.89
2023-05-18T16:40:26.493Z,19.15
2023-05-18T16:42:53.607Z,19.16
2023-05-18T16:45:20.989Z,19.12
2023-05-18T16:47:48.504Z,19.21
2023-05-18T16:50:15.669Z,19.21
2023-05-18T16:52:42.914Z,19.30
2023-05-18T16:55:10.285Z,19.02
2023-05-18T16:57:37.854Z,19.11
2023-05-18T17:00:09.489Z,18.96
2023-05-18T17:02:38.389Z,18.69
2023-05-18T17:05:06.857Z,18.91
2023-05-18T17:07:36.290Z,18.85
2023-05-18T17:10:04.255Z,18.19
2023-05-18T17:12:32.138Z,18.38
2023-05-18T17:14:58.854Z,18.47
2023-05-18T17:17:25.679Z,18.40
2023-05-18T17:19:52.416Z,18.49
2023-05-18T17:22:19.397Z,18.68
2023-05-18T17:24:46.208Z,18.57
2023-05-18T17:27:12.960Z,18.75
2023-05-18T17:29:39.694Z,18.68
2023-05-18T17:32:06.762Z,18.99
2023-05-18T17:34:33.847Z,18.93
2023-05-18T17:37:00.500Z,19.03
2023-05-18T17:39:27.251Z,19.11
2023-05-18T17:41:54.474Z,19.12
2023-05-18T17:44:21.232Z,19.21
2023-05-18T17:46:48.179Z,19.12
2023-05-18T17:49:15.860Z,19.14
2023-05-18T17:51:42.760Z,19.09
2023-05-18T17:54:09.618Z,19.18
2023-05-18T17:56:36.481Z,19.30
2023-05-18T17:59:04.177Z,19.38
2023-05-18T18:01:31.621Z,19.22
2023-05-18T18:03:58.420Z,19.34
2023-05-18T18:06:26.016Z,19.21
2023-05-18T18:08:55.850Z,19.40
2023-05-18T18:11:23.580Z,19.45
2023-05-18T18:13:51.484Z,19.21
2023-05-18T18:16:19.820Z,19.39
2023-05-18T18:18:47.627Z,19.42
2023-05-18T18:21:14.719Z,19.35
2023-05-18T18:23:44.509Z,19.37
2023-05-18T18:26:11.357Z,19.47
2023-05-18T18:28:38.118Z,19.51
2023-05-18T18:31:04.930Z,19.54
2023-05-18T18:33:33.057Z,19.57
2023-05-18T18:36:00.000Z,19.41
2023-05-18T18:38:29.518Z,19.30
2023-05-18T18:41:01.476Z,19.33
2023-05-18T18:43:28.775Z,19.43
2023-05-18T18:45:57.453Z,19.38
2023-05-18T18:48:26.372Z,19.40
2023-05-18T18:50:53.812Z,19.40
2023-05-18T18:53:20.701Z,19.20
2023-05-18T18:55:48.990Z,19.21
2023-05-18T18:58:15.840Z,19.22
2023-05-18T19:00:43.045Z,18.93
2023-05-18T19:03:10.765Z,19.02
2023-05-18T19:05:37.922Z,18.94
2023-05-18T19:08:07.446Z,19.09
2023-05-18T19:10:34.696Z,19.27
2023-05-18T19:13:07.228Z,19.12
2023-05-18T19:15:38.728Z,19.24
2023-05-18T19:18:06.752Z,19.07
2023-05-18T19:20:34.099Z,19.21
2023-05-18T19:23:01.198Z,19.00
2023-05-18T19:25:30.187Z,18.94
2023-05-18T19:27:57.478Z,18.99
2023-05-18T19:30:24.619Z,18.79
2023-05-18T19:32:53.667Z,18.72
2023-05-18T19:35:22.404Z,18.83
2023-05-18T19:37:50.041Z,18.70
2023-05-18T19:40:18.448Z,18.67
2023-05-18T19:42:46.670Z,18.77
2023-05-18T19:45:18.506Z,18.58
2023-05-18T19:47:49.441Z,18.56
2023-05-18T19:50:16.375Z,18.39
2023-05-18T19:52:44.054Z,18.54
2023-05-18T19:55:11.258Z,18.41
2023-05-18T19:57:38.790Z,18.38
2023-05-18T20:00:07.476Z,18.33
2023-05-18T20:02:34.778Z,18.39
2023-05-18T20:05:01.927Z,18.38
2023-05-18T20:07:30.309Z,18.44
2023-05-18T20:09:56.971Z,18.19
2023-05-18T20:12:23.684Z,18.18
2023-05-18T20:14:51.639Z,18.04
2023-05-18T20:17:19.111Z,17.94
2023-05-18T20:19:50.619Z,17.80
2023-05-18T20:22:18.324Z,17.80
2023-05-18T20:24:46.563Z,17.85
2023-05-18T20:27:17.037Z,17.83
2023-05-18T20:29:43.854Z,17.70
2023-05-18T20:32:10.874Z,17.69
2023-05-18T20:34:37.716Z,17.75
2023-05-18T20:37:05.388Z,17.78
2023-05-18T20:39:32.915Z,17.79
2023-05-18T20:41:59.709Z,17.80
2023-05-18T20:44:28.081Z,17.77
2023-05-18T20:46:54.849Z,17.62
2023-05-18T20:49:21.762Z,17.68
2023-05-18T20:51:49.601Z,17.73
2023-05-18T20:54:18.018Z,17.56
2023-05-18T20:56:45.049Z,17.50
2023-05-18T20:59:12.798Z,17.30
2023-05-18T21:01:40.017Z,17.37
2023-05-18T21:04:08.010Z,17.32
2023-05-18T21:06:40.996Z,17.16
2023-05-18T21:09:08.217Z,17.04
2023-05-18T21:11:35.300Z,16.85
2023-05-18T21:14:02.181Z,16.98
2023-05-18T21:16:29.050Z,16.86
2023-05-18T21:18:55.912Z,16.91
2023-05-18T21:21:22.946Z,16.96
2023-05-18T21:23:49.795Z,16.90
2023-05-18T21:26:16.648Z,16.81
2023-05-18T21:28:43.389Z,16.92
2023-05-18T21:31:10.067Z,16.84
2023-05-18T21:33:36.828Z,16.94
2023-05-18T21:36:04.315Z,16.93
2023-05-18T21:38:31.145Z,17.00
2023-05-18T21:40:57.828Z,17.03
2023-05-18T21:43:24.589Z,16.97
2023-05-18T21:45:51.419Z,16.99
2023-05-18T21:48:18.128Z,17.04
2023-05-18T21:50:44.848Z,17.00
2023-05-18T21:53:11.561Z,16.94
2023-05-18T21:55:38.251Z,17.03
2023-05-18T21:58:04.958Z,16.92
2023-05-18T22:00:31.944Z,16.92
2023-05-18T22:02:58.871Z,16.91
2023-05-18T22:05:25.679Z,16.93
2023-05-18T22:07:52.449Z,16.92
2023-05-18T22:10:19.157Z,16.92
2023-05-18T22:12:46.108Z,16.75
2023-05-18T22:15:12.845Z,16.91
2023-05-18T22:17:40.428Z,16.97
2023-05-18T22:20:11.709Z,16.93
2023-05-18T22:22:40.424Z,16.87
2023-05-18T22:25:07.735Z,16.68
2023-05-18T22:27:36.664Z,16.74
2023-05-18T22:30:05.201Z,16.73
2023-05-18T22:32:32.743Z,16.80
2023-05-18T22:35:01.419Z,16.83
2023-05-18T22:37:28.127Z,16.80
2023-05-18T22:39:54.828Z,16.91
2023-05-18T22:42:22.180Z,16.96
2023-05-18T22:44:49.009Z,16.85
2023-05-18T22:47:19.783Z,16.80
2023-05-18T22:49:47.091Z,16.85
2023-05-18T22:52:14.134Z,16.72
2023-05-18T22:54:40.823Z,16.75
2023-05-18T22:57:07.586Z,16.72
2023-05-18T22:59:34.980Z,16.66
2023-05-18T23:02:01.803Z,16.59
2023-05-18T23:04:28.504Z,16.49
2023-05-18T23:06:57.010Z,16.60
2023-05-18T23:09:27.048Z,16.56
2023-05-18T23:11:55.769Z,16.54
2023-05-18T23:14:25.570Z,16.51
2023-05-18T23:16:53.565Z,16.57
2023-05-18T23:19:20.472Z,16.59
2023-05-18T23:21:47.310Z,16.55
2023-05-18T23:24:15.382Z,16.59
2023-05-18T23:26:43.498Z,16.52
2023-05-18T23:29:10.955Z,16.60
2023-05-18T23:31:38.030Z,16.48
2023-05-18T23:34:05.161Z,16.51
2023-05-18T23:36:35.116Z,16.34
2023-05-18T23:39:02.461Z,16.43
2023-05-18T23:41:31.768Z,16.40
2023-05-18T23:43:59.145Z,16.34
2023-05-18T23:46:26.633Z,16.26
2023-05-18T23:48:55.135Z,16.44
2023-05-18T23:51:22.253Z,16.35
2023-05-18T23:53:51.797Z,16.33
2023-05-18T23:56:19.006Z,16.38
2023-05-18T23:58:46.923Z,16.34
